Time;durP1;ratioP1;P1;durP2;ratioP2;P2;SDS_P1;SDS_P2;PMS_P1;PMS_P2;Temp;Humidity;BMP_temperature;BMP_pressure;BME280_temperature;BME280_humidity;BME280_pressure;Samples;Min_cycle;Max_cycle;Signal;HPM_P1;HPM_P2
2021/03/16 00:00:51;;;;;;;8.95;7.95;;;;;;;2.06;85.61;97334.45;1784699;80;21263;-70
2021/03/16 00:03:40;;;;;;;8.20;7.33;;;;;;;2.06;85.50;97332.65;1784716;80;21453;-70
2021/03/16 00:06:16;;;;;;;9.40;8.30;;;;;;;2.07;85.42;97333.53;1782095;80;21369;-69
2021/03/16 00:08:44;;;;;;;10.65;7.55;;;;;;;2.08;85.37;97327.27;1784744;79;20924;-71
2021/03/16 00:11:12;;;;;;;8.00;6.55;;;;;;;2.09;85.18;97335.14;1780663;80;20913;-71
2021/03/16 00:13:40;;;;;;;8.53;7.53;;;;;;;2.09;85.01;97334.30;1748385;80;21190;-71
2021/03/16 00:16:10;;;;;;;8.48;7.67;;;;;;;2.08;84.93;97334.77;1778844;80;21000;-71
2021/03/16 00:18:38;;;;;;;9.98;8.70;;;;;;;2.08;84.93;97338.74;1778960;80;20980;-71
2021/03/16 00:21:08;;;;;;;9.03;7.50;;;;;;;2.06;84.98;97337.95;1778864;80;21043;-70
2021/03/16 00:23:37;;;;;;;9.18;8.28;;;;;;;2.07;84.96;97338.34;1778938;80;20976;-71
2021/03/16 00:26:05;;;;;;;8.65;7.80;;;;;;;2.07;84.91;97335.70;1778883;80;21413;-70
2021/03/16 00:28:35;;;;;;;9.55;8.33;;;;;;;2.09;84.98;97334.30;1778957;80;20901;-70
2021/03/16 00:31:04;;;;;;;10.13;9.13;;;;;;;2.08;84.94;97337.42;1778886;80;20940;-70
2021/03/16 00:33:31;;;;;;;10.10;8.98;;;;;;;2.08;85.01;97334.77;1778920;80;21342;-70
2021/03/16 00:35:58;;;;;;;9.38;8.40;;;;;;;2.09;85.01;97328.52;1778871;80;20984;-70
2021/03/16 00:38:29;;;;;;;9.73;8.55;;;;;;;2.10;84.89;97331.56;1778945;80;21336;-71
2021/03/16 00:40:57;;;;;;;9.15;8.25;;;;;;;2.11;84.81;97324.46;1778818;80;20988;-70
2021/03/16 00:43:25;;;;;;;10.38;8.98;;;;;;;2.11;84.76;97320.48;1778893;80;20900;-70
2021/03/16 00:45:54;;;;;;;11.03;10.00;;;;;;;2.10;84.79;97315.67;1778765;80;20982;-70
2021/03/16 00:48:22;;;;;;;11.10;9.83;;;;;;;2.11;84.75;97314.74;1778993;80;20916;-70
2021/03/16 00:50:54;;;;;;;9.93;8.68;;;;;;;2.11;84.65;97316.07;1778833;80;20971;-70
2021/03/16 00:53:24;;;;;;;9.38;8.20;;;;;;;2.10;84.58;97313.50;1778998;80;21354;-70
2021/03/16 00:55:54;;;;;;;9.98;8.98;;;;;;;2.11;84.56;97306.80;1778807;80;21038;-70
2021/03/16 00:58:29;;;;;;;10.40;9.08;;;;;;;2.12;84.54;97307.16;1778810;80;20916;-69
2021/03/16 01:00:58;;;;;;;9.65;8.75;;;;;;;2.12;84.51;97307.64;1778537;80;21040;-70
2021/03/16 01:03:26;;;;;;;11.90;9.55;;;;;;;2.10;84.49;97307.72;1778976;80;21360;-70
2021/03/16 01:05:54;;;;;;;8.58;7.67;;;;;;;2.09;84.43;97308.65;1778805;80;20948;-69
2021/03/16 01:08:23;;;;;;;9.68;8.68;;;;;;;2.10;84.33;97305.08;1778904;80;21015;-70
2021/03/16 01:10:53;;;;;;;8.38;7.53;;;;;;;2.08;84.23;97304.31;1775215;80;20925;-70
2021/03/16 01:13:21;;;;;;;10.75;9.55;;;;;;;2.06;84.47;97300.86;1770483;81;21378;-70
2021/03/16 01:15:50;;;;;;;10.32;8.93;;;;;;;2.05;84.42;97296.52;1770361;80;21362;-70
2021/03/16 01:18:20;;;;;;;9.55;8.33;;;;;;;2.04;84.51;97298.77;1770348;81;20972;-70
2021/03/16 01:20:48;;;;;;;13.32;10.23;;;;;;;2.03;84.64;97291.75;1770339;81;21016;-70
2021/03/16 01:23:16;;;;;;;11.22;10.03;;;;;;;2.05;84.62;97289.90;1770428;80;21413;-69
2021/03/16 01:25:45;;;;;;;11.95;10.75;;;;;;;2.06;84.59;97292.91;1766943;81;20933;-69
2021/03/16 01:28:13;;;;;;;11.97;10.55;;;;;;;2.07;84.72;97293.80;1770428;80;21368;-70
2021/03/16 01:30:44;;;;;;;11.25;10.15;;;;;;;2.08;84.83;97299.02;1770362;81;20954;-70
2021/03/16 01:33:12;;;;;;;10.85;9.75;;;;;;;2.08;84.88;97296.36;1770408;81;20924;-70
2021/03/16 01:35:43;;;;;;;10.68;9.55;;;;;;;2.09;84.87;97299.86;1770391;80;21422;-70
2021/03/16 01:38:11;;;;;;;11.15;10.08;;;;;;;2.10;84.80;97305.08;1770305;81;20913;-70
2021/03/16 01:40:40;;;;;;;10.93;9.93;;;;;;;2.11;84.75;97297.97;1770416;81;21258;-71
2021/03/16 01:43:17;;;;;;;11.10;10.00;;;;;;;2.11;84.83;97301.50;1770464;81;21414;-71
2021/03/16 01:45:47;;;;;;;11.18;10.10;;;;;;;2.10;84.95;97302.42;1770386;81;21023;-71
2021/03/16 01:48:25;;;;;;;10.10;8.98;;;;;;;2.12;84.94;97303.19;1770360;80;20921;-71
2021/03/16 01:50:53;;;;;;;11.22;10.23;;;;;;;2.10;85.06;97305.08;1770412;81;20940;-71
2021/03/16 01:53:21;;;;;;;10.65;9.63;;;;;;;2.12;85.06;97307.64;1770422;81;21782;-71
2021/03/16 01:55:49;;;;;;;12.33;11.12;;;;;;;2.11;85.06;97304.15;1770345;81;20984;-71
2021/03/16 01:58:17;;;;;;;11.60;10.40;;;;;;;2.12;85.11;97304.99;1770352;80;21433;-71
2021/03/16 02:01:04;;;;;;;10.68;9.65;;;;;;;2.12;85.20;97295.24;1770370;81;20921;-71
2021/03/16 02:03:53;;;;;;;10.90;9.80;;;;;;;2.12;85.21;97287.30;1770397;81;20890;-70
2021/03/16 02:06:45;;;;;;;11.20;10.05;;;;;;;2.14;85.25;97290.74;1770382;81;21305;-71
2021/03/16 02:09:49;;;;;;;12.58;11.25;;;;;;;2.12;85.31;97285.97;1770346;81;20952;-71
2021/03/16 02:13:01;;;;;;;12.75;11.53;;;;;;;2.12;85.30;97287.77;1776086;80;20928;-70
2021/03/16 02:15:55;;;;;;;13.08;11.78;;;;;;;2.12;85.26;97295.24;1776166;80;21000;-70
2021/03/16 02:18:50;;;;;;;13.80;11.95;;;;;;;2.14;85.36;97293.84;1776113;80;20944;-70
2021/03/16 02:21:37;;;;;;;12.85;11.60;;;;;;;2.16;85.44;97301.22;1776107;80;21199;-70
2021/03/16 02:24:41;;;;;;;12.63;10.93;;;;;;;2.17;85.40;97307.77;1750413;80;20901;-70
2021/03/16 02:27:34;;;;;;;12.90;11.25;;;;;;;2.17;85.19;97295.00;1776044;80;20976;-70
2021/03/16 02:30:20;;;;;;;12.68;11.43;;;;;;;2.19;85.16;97302.39;1776042;80;21012;-69
2021/03/16 02:33:10;;;;;;;12.80;11.50;;;;;;;2.21;85.20;97306.28;1745606;80;21000;-70
2021/03/16 02:35:56;;;;;;;12.18;10.98;;;;;;;2.22;85.09;97298.25;1750769;80;21186;-71
2021/03/16 02:38:46;;;;;;;10.78;9.68;;;;;;;2.23;85.00;97291.19;1776275;80;20905;-70
2021/03/16 02:41:33;;;;;;;11.00;9.90;;;;;;;2.26;84.83;97293.67;1776368;80;21383;-70
2021/03/16 02:44:22;;;;;;;12.47;11.18;;;;;;;2.27;84.63;97295.36;1649989;85;20955;-70
2021/03/16 02:47:10;;;;;;;10.93;9.38;;;;;;;2.26;84.58;97292.34;1650739;85;21384;-69
2021/03/16 02:49:56;;;;;;;10.13;9.18;;;;;;;2.25;84.55;97295.44;1656932;86;21233;-69
2021/03/16 02:52:42;;;;;;;10.25;9.28;;;;;;;2.26;84.46;97296.31;1656917;86;20967;-69
2021/03/16 02:55:29;;;;;;;10.63;9.53;;;;;;;2.27;84.33;97290.06;1650805;86;20951;-69
2021/03/16 02:58:18;;;;;;;10.72;9.30;;;;;;;2.28;84.30;97293.11;1672620;85;20939;-70
2021/03/16 03:01:05;;;;;;;11.15;10.00;;;;;;;2.27;84.41;97290.06;1722092;83;21384;-70
2021/03/16 03:03:53;;;;;;;9.75;8.85;;;;;;;2.26;84.26;97293.19;1721958;83;21436;-69
2021/03/16 03:06:40;;;;;;;9.48;8.58;;;;;;;2.26;84.20;97291.02;1721799;83;20954;-69
2021/03/16 03:09:26;;;;;;;10.58;9.55;;;;;;;2.25;84.12;97289.30;1721921;83;21014;-69
2021/03/16 03:12:14;;;;;;;9.78;8.33;;;;;;;2.25;84.11;97293.27;1721980;83;21014;-70
2021/03/16 03:14:59;;;;;;;9.73;8.70;;;;;;;2.24;84.26;97297.73;1722033;83;21470;-70
2021/03/16 03:17:46;;;;;;;10.30;8.93;;;;;;;2.23;84.16;97295.16;1721958;83;21354;-70
2021/03/16 03:20:36;;;;;;;8.70;7.87;;;;;;;2.22;84.08;97294.28;1721912;83;21029;-70
2021/03/16 03:23:29;;;;;;;9.98;8.98;;;;;;;2.21;84.00;97288.61;1722021;83;21486;-70
2021/03/16 03:26:19;;;;;;;9.98;8.98;;;;;;;2.21;83.97;97294.36;1721820;83;21067;-70
2021/03/16 03:29:12;;;;;;;9.70;8.80;;;;;;;2.21;84.05;97300.98;1722270;83;20938;-70
2021/03/16 03:31:59;;;;;;;10.40;8.28;;;;;;;2.21;83.99;97302.31;1721940;83;21683;-70
2021/03/16 03:34:50;;;;;;;11.38;9.13;;;;;;;2.20;83.99;97292.67;1721851;83;20961;-70
2021/03/16 03:37:36;;;;;;;9.28;8.38;;;;;;;2.22;83.90;97304.03;1721878;83;21027;-71
2021/03/16 03:40:23;;;;;;;10.68;9.50;;;;;;;2.20;83.82;97305.44;1722009;83;20959;-70
2021/03/16 03:43:10;;;;;;;13.03;10.72;;;;;;;2.19;83.67;97304.19;1718263;82;20927;-69
2021/03/16 03:45:58;;;;;;;11.83;10.63;;;;;;;2.13;83.46;97302.27;1711911;83;21810;-70
2021/03/16 03:48:45;;;;;;;12.28;11.08;;;;;;;2.10;83.42;97301.58;1711909;83;20990;-71
2021/03/16 03:51:33;;;;;;;12.40;10.38;;;;;;;2.05;83.56;97299.17;1711937;83;21487;-70
2021/03/16 03:54:20;;;;;;;12.63;11.30;;;;;;;2.03;83.70;97302.34;1711858;83;20954;-70
2021/03/16 03:57:09;;;;;;;9.60;8.68;;;;;;;1.99;83.84;97301.66;1711973;83;20926;-70
2021/03/16 03:59:55;;;;;;;11.05;9.95;;;;;;;1.97;83.85;97299.57;1712024;83;22129;-71
2021/03/16 04:02:43;;;;;;;11.43;9.68;;;;;;;1.93;83.85;97298.00;1711816;83;21057;-69
2021/03/16 04:05:31;;;;;;;9.70;8.00;;;;;;;1.91;83.94;97302.53;1711839;83;20990;-71
2021/03/16 04:08:18;;;;;;;8.18;7.30;;;;;;;1.88;84.09;97296.55;1711885;83;20932;-69
2021/03/16 04:11:03;;;;;;;10.20;9.15;;;;;;;1.88;83.99;97301.84;1711932;83;21029;-70
2021/03/16 04:13:53;;;;;;;10.28;9.28;;;;;;;1.86;84.02;97307.22;1713987;83;21185;-71
2021/03/16 04:16:39;;;;;;;11.38;10.30;;;;;;;1.86;84.04;97305.02;1711838;83;21519;-71
2021/03/16 04:19:26;;;;;;;11.30;9.58;;;;;;;1.86;84.18;97305.02;1711946;83;21013;-71
2021/03/16 04:22:12;;;;;;;13.32;12.03;;;;;;;1.87;84.20;97310.23;1711869;83;20942;-70
2021/03/16 04:24:59;;;;;;;11.65;10.45;;;;;;;1.86;84.19;97307.22;1695078;83;20958;-71
2021/03/16 04:27:46;;;;;;;9.68;8.68;;;;;;;1.85;84.02;97312.59;1711873;83;22391;-72
2021/03/16 04:30:33;;;;;;;9.45;8.45;;;;;;;1.82;83.87;97307.45;1711814;83;21033;-71
2021/03/16 04:33:19;;;;;;;9.95;8.95;;;;;;;1.79;83.89;97313.28;1711972;83;21371;-70
2021/03/16 04:36:07;;;;;;;8.98;8.00;;;;;;;1.74;83.95;97303.40;1711795;83;20959;-70
2021/03/16 04:38:53;;;;;;;9.35;7.97;;;;;;;1.70;84.08;97312.42;1711911;83;21057;-71
2021/03/16 04:41:39;;;;;;;9.90;8.90;;;;;;;1.67;84.13;97317.91;1694885;83;21767;-70
2021/03/16 04:44:25;;;;;;;10.08;8.93;;;;;;;1.62;84.12;97322.11;1721516;83;20997;-71
2021/03/16 04:47:13;;;;;;;11.57;10.18;;;;;;;1.59;84.28;97324.91;1725227;83;20938;-71
2021/03/16 04:49:59;;;;;;;10.00;9.00;;;;;;;1.55;84.43;97323.81;1725194;82;20958;-71
2021/03/16 04:52:46;;;;;;;10.58;9.30;;;;;;;1.53;84.56;97330.50;1725359;83;20982;-70
2021/03/16 04:55:34;;;;;;;9.40;8.40;;;;;;;1.55;84.69;97326.45;1725184;83;21377;-70
2021/03/16 04:58:21;;;;;;;12.60;11.30;;;;;;;1.54;84.64;97328.70;1725182;83;20914;-70
2021/03/16 05:01:07;;;;;;;10.75;9.20;;;;;;;1.52;84.70;97330.58;1725264;83;20962;-72
2021/03/16 05:03:54;;;;;;;11.35;9.50;;;;;;;1.50;84.80;97327.13;1725145;83;21498;-71
2021/03/16 05:06:41;;;;;;;10.45;9.35;;;;;;;1.49;84.90;97322.31;1702918;83;20930;-71
2021/03/16 05:09:29;;;;;;;15.38;11.65;;;;;;;1.50;84.84;97330.66;1725204;83;21199;-71
2021/03/16 05:12:15;;;;;;;12.07;10.88;;;;;;;1.49;84.91;97329.41;1725184;83;21471;-71
2021/03/16 05:15:02;;;;;;;11.78;10.20;;;;;;;1.49;85.03;97327.61;1725150;83;20902;-71
2021/03/16 05:17:48;;;;;;;12.33;11.03;;;;;;;1.50;85.16;97332.42;1725233;83;20938;-70
2021/03/16 05:20:36;;;;;;;10.90;9.73;;;;;;;1.49;85.11;97320.99;1725276;83;21009;-71
2021/03/16 05:23:25;;;;;;;11.88;10.75;;;;;;;1.51;85.21;97319.59;1725010;83;21213;-70
2021/03/16 05:26:11;;;;;;;11.93;10.72;;;;;;;1.49;85.22;97322.79;1725105;83;20958;-71
2021/03/16 05:28:58;;;;;;;12.75;11.25;;;;;;;1.48;85.29;97322.39;1725258;83;20934;-71
2021/03/16 05:31:45;;;;;;;14.20;10.85;;;;;;;1.47;85.13;97330.80;1725560;82;20994;-71
2021/03/16 05:34:32;;;;;;;13.08;11.75;;;;;;;1.46;85.19;97326.91;1726348;83;21380;-69
2021/03/16 05:37:19;;;;;;;14.00;12.30;;;;;;;1.48;85.29;97322.39;1726258;83;21013;-71
2021/03/16 05:40:09;;;;;;;12.00;10.68;;;;;;;1.49;85.62;97326.28;1725955;82;21017;-71
2021/03/16 05:42:57;;;;;;;14.10;11.73;;;;;;;1.50;85.76;97328.45;1726152;82;21022;-70
2021/03/16 05:45:45;;;;;;;11.00;9.60;;;;;;;1.52;85.76;97323.97;1687391;85;21055;-71
2021/03/16 05:48:38;;;;;;;11.95;10.75;;;;;;;1.56;85.74;97333.44;1686977;85;21025;-71
2021/03/16 05:51:24;;;;;;;12.78;10.95;;;;;;;1.57;85.68;97327.22;1653798;86;22274;-71
2021/03/16 05:54:13;;;;;;;16.48;12.25;;;;;;;1.58;85.77;97328.95;1653724;86;21618;-71
2021/03/16 05:56:59;;;;;;;11.55;10.30;;;;;;;1.58;85.83;97330.27;1653736;86;20950;-70
2021/03/16 05:59:49;;;;;;;11.83;10.58;;;;;;;1.62;85.88;97338.43;1653664;86;21009;-70
2021/03/16 06:02:37;;;;;;;15.28;12.53;;;;;;;1.62;85.91;97339.75;1653787;86;21574;-71
2021/03/16 06:05:25;;;;;;;11.57;10.28;;;;;;;1.65;86.00;97342.25;1653688;86;21224;-72
2021/03/16 06:08:11;;;;;;;10.28;9.18;;;;;;;1.69;86.02;97350.44;1653639;86;20982;-70
2021/03/16 06:10:58;;;;;;;12.70;11.40;;;;;;;1.70;85.94;97345.52;1649233;87;20966;-71
2021/03/16 06:13:56;;;;;;;13.50;12.10;;;;;;;1.74;85.83;97353.70;1649180;87;21002;-72
2021/03/16 06:16:42;;;;;;;12.90;11.03;;;;;;;1.75;85.77;97354.09;1649222;87;20922;-71
2021/03/16 06:19:34;;;;;;;13.65;11.73;;;;;;;1.78;85.72;97353.06;1649123;87;21231;-71
2021/03/16 06:22:24;;;;;;;11.97;10.75;;;;;;;1.80;85.71;97353.39;1649330;87;21085;-72
2021/03/16 06:25:13;;;;;;;14.55;11.97;;;;;;;1.83;85.69;97346.22;1649209;87;20926;-71
2021/03/16 06:28:05;;;;;;;12.95;11.53;;;;;;;1.86;85.63;97352.68;1643788;86;21179;-70
2021/03/16 06:30:51;;;;;;;13.00;11.45;;;;;;;1.87;85.50;97361.03;1649213;87;20926;-71
2021/03/16 06:33:39;;;;;;;11.05;9.70;;;;;;;1.89;85.49;97364.00;1649224;87;21863;-72
2021/03/16 06:36:30;;;;;;;10.18;8.95;;;;;;;1.91;85.51;97359.95;1649231;87;21032;-71
2021/03/16 06:39:22;;;;;;;10.70;9.60;;;;;;;1.92;85.57;97359.84;1649242;87;20977;-71
2021/03/16 06:42:21;;;;;;;12.73;10.82;;;;;;;1.93;85.37;97369.51;1649110;87;20918;-72
2021/03/16 06:45:10;;;;;;;10.80;8.78;;;;;;;1.93;85.19;97369.98;1634601;87;21002;-72
2021/03/16 06:47:57;;;;;;;12.63;11.30;;;;;;;1.93;85.23;97376.61;1649916;87;21175;-72
2021/03/16 06:50:47;;;;;;;15.15;11.75;;;;;;;1.93;85.28;97380.09;1642783;86;21041;-72
2021/03/16 06:53:33;;;;;;;12.13;10.85;;;;;;;1.96;85.50;97381.75;1642806;86;21064;-72
2021/03/16 06:56:29;;;;;;;11.38;10.08;;;;;;;1.98;85.49;97385.16;1642526;84;20969;-72
2021/03/16 06:59:29;;;;;;;13.48;11.43;;;;;;;1.99;85.39;97389.06;1642976;87;21467;-74
2021/03/16 07:02:19;;;;;;;13.38;11.97;;;;;;;1.97;85.26;97384.31;1642856;87;21908;-73
2021/03/16 07:05:12;;;;;;;15.25;12.18;;;;;;;2.02;85.23;97395.13;1642678;84;20985;-76
2021/03/16 07:08:01;;;;;;;13.28;11.30;;;;;;;2.02;85.42;97394.68;1642854;86;20933;-77
2021/03/16 07:10:50;;;;;;;12.68;11.48;;;;;;;2.06;85.14;97402.84;1625554;87;21522;-77
2021/03/16 07:13:37;;;;;;;18.10;13.85;;;;;;;2.03;84.78;97397.70;1642937;86;21477;-78
2021/03/16 07:16:24;;;;;;;18.17;15.75;;;;;;;2.02;84.79;97407.92;1643040;84;21665;-78
2021/03/16 07:19:11;;;;;;;19.10;14.95;;;;;;;2.03;84.94;97412.27;1642863;87;21044;-78
2021/03/16 07:21:59;;;;;;;14.25;12.70;;;;;;;2.03;84.99;97406.97;1643047;87;20945;-76
2021/03/16 07:24:48;;;;;;;13.32;11.93;;;;;;;2.06;84.89;97420.06;1643040;84;20986;-77
2021/03/16 07:27:34;;;;;;;13.95;11.63;;;;;;;2.05;84.65;97413.06;1643010;86;20993;-76
2021/03/16 07:30:23;;;;;;;13.22;11.28;;;;;;;2.04;84.62;97416.64;1643076;86;21821;-78
2021/03/16 07:33:13;;;;;;;13.25;11.83;;;;;;;2.03;84.74;97418.89;1643050;87;21495;-78
2021/03/16 07:36:01;;;;;;;15.28;12.65;;;;;;;2.05;85.07;97407.77;1642913;86;20981;-78
2021/03/16 07:38:52;;;;;;;12.73;11.15;;;;;;;2.06;85.38;97402.84;1642966;86;20961;-78
2021/03/16 07:41:42;;;;;;;15.88;12.37;;;;;;;2.09;85.59;97411.95;1643018;87;20922;-77
2021/03/16 07:44:29;;;;;;;12.68;10.75;;;;;;;2.08;85.68;97407.62;1653660;84;21671;-79
2021/03/16 07:47:15;;;;;;;13.55;11.93;;;;;;;2.12;85.65;97401.20;1675574;85;21055;-79
2021/03/16 07:50:07;;;;;;;15.80;12.13;;;;;;;2.13;85.65;97406.91;1675768;84;20925;-79
2021/03/16 07:52:56;;;;;;;26.90;20.23;;;;;;;2.16;85.75;97408.52;1675631;84;21016;-75
2021/03/16 07:55:43;;;;;;;15.65;12.30;;;;;;;2.20;85.78;97418.03;1675347;84;21024;-76
2021/03/16 07:58:30;;;;;;;11.35;10.18;;;;;;;2.22;85.82;97412.18;1657647;85;21375;-79
2021/03/16 08:01:19;;;;;;;11.57;10.38;;;;;;;2.28;85.65;97420.30;1675212;84;20972;-82
2021/03/16 08:04:09;;;;;;;26.12;19.07;;;;;;;2.28;85.39;97416.32;1675341;84;21008;-79
2021/03/16 08:07:00;;;;;;;31.70;20.32;;;;;;;2.30;85.47;97423.27;1675310;85;21465;-79
2021/03/16 08:09:52;;;;;;;33.35;22.22;;;;;;;2.34;85.65;97429.25;1675290;84;20957;-78
2021/03/16 08:12:40;;;;;;;20.32;16.40;;;;;;;2.39;85.63;97424.56;1675301;85;21722;-78
2021/03/16 08:15:47;;;;;;;25.05;19.35;;;;;;;2.41;85.29;97421.84;1675197;84;20936;-78
2021/03/16 08:18:35;;;;;;;14.28;12.50;;;;;;;2.42;85.18;97424.41;1675320;84;21470;-78
2021/03/16 08:21:22;;;;;;;17.77;13.90;;;;;;;2.42;84.87;97429.70;1675281;85;20992;-78
2021/03/16 08:24:14;;;;;;;39.15;25.45;;;;;;;2.43;84.73;97422.60;1676314;85;21051;-78
2021/03/16 08:27:14;;;;;;;28.85;21.42;;;;;;;2.43;84.64;97430.55;1675314;84;22536;-80
2021/03/16 08:30:07;;;;;;;17.77;15.88;;;;;;;2.41;84.48;97429.30;1675283;85;20968;-79
2021/03/16 08:32:58;;;;;;;20.00;15.35;;;;;;;2.42;84.54;97427.05;1675287;84;20972;-79
2021/03/16 08:35:49;;;;;;;14.73;13.28;;;;;;;2.40;84.37;97424.97;1675179;85;21020;-78
2021/03/16 08:38:40;;;;;;;18.57;15.60;;;;;;;2.37;84.23;97418.50;1675417;85;20976;-80
2021/03/16 08:41:28;;;;;;;34.73;25.00;;;;;;;2.35;84.54;97433.63;1675279;84;21398;-78
2021/03/16 08:44:17;;;;;;;18.70;15.25;;;;;;;2.35;84.78;97436.28;1674956;84;21048;-77
2021/03/16 08:47:18;;;;;;;19.77;17.25;;;;;;;2.37;85.00;97427.77;1712985;83;21049;-79
2021/03/16 08:50:11;;;;;;;18.00;16.10;;;;;;;2.38;84.91;97433.47;1712951;83;20935;-80
2021/03/16 08:52:58;;;;;;;14.90;13.35;;;;;;;2.40;85.20;97442.19;1672201;83;20986;-79
2021/03/16 08:55:50;;;;;;;17.55;15.65;;;;;;;2.42;85.22;97438.14;1712937;83;21014;-78
2021/03/16 08:58:37;;;;;;;14.65;13.25;;;;;;;2.48;85.38;97439.99;1712881;83;21451;-79
2021/03/16 09:01:29;;;;;;;13.10;11.75;;;;;;;2.53;85.71;97437.10;1712946;83;21077;-80
2021/03/16 09:04:18;;;;;;;14.53;13.03;;;;;;;2.58;85.73;97439.52;1713031;83;21022;-78
2021/03/16 09:07:08;;;;;;;12.47;10.55;;;;;;;2.63;85.55;97440.13;1712947;83;20983;-79
2021/03/16 09:10:09;;;;;;;12.53;11.25;;;;;;;2.67;85.31;97441.69;1712873;83;22247;-80
2021/03/16 09:12:57;;;;;;;12.10;10.95;;;;;;;2.69;84.87;97448.60;1712912;83;21046;-79
2021/03/16 09:15:49;;;;;;;14.10;12.23;;;;;;;2.70;84.58;97445.02;1712997;83;21547;-80
2021/03/16 09:18:37;;;;;;;13.55;10.93;;;;;;;2.71;84.74;97451.17;1712920;83;21030;-79
2021/03/16 09:21:24;;;;;;;14.13;11.80;;;;;;;2.73;84.41;97447.99;1709063;83;21069;-80
2021/03/16 09:24:10;;;;;;;34.73;23.67;;;;;;;2.73;83.77;97450.64;1712939;83;21639;-78
2021/03/16 09:27:00;;;;;;;15.10;12.28;;;;;;;2.75;83.84;97454.06;1670778;83;21002;-80
2021/03/16 09:29:47;;;;;;;12.50;11.12;;;;;;;2.73;83.41;97449.77;1712971;83;21038;-79
2021/03/16 09:32:37;;;;;;;11.57;9.53;;;;;;;2.68;83.17;97452.66;1671395;83;20998;-79
2021/03/16 09:35:25;;;;;;;11.70;10.50;;;;;;;2.64;83.14;97459.08;1712988;83;20995;-79
2021/03/16 09:38:11;;;;;;;11.28;9.75;;;;;;;2.62;83.34;97459.64;1712947;83;21375;-78
2021/03/16 09:40:42;;;;;;;11.85;9.68;;;;;;;2.59;83.58;97456.67;1712832;83;20959;-77
2021/03/16 09:43:31;;;;;;;13.20;11.97;;;;;;;2.57;83.54;97461.20;1712885;83;21420;-79
2021/03/16 09:46:08;;;;;;;12.63;11.33;;;;;;;2.57;83.31;97469.60;1712184;83;20963;-79
2021/03/16 09:48:40;;;;;;;12.20;10.90;;;;;;;2.57;83.60;97457.67;1711879;83;20947;-79
2021/03/16 09:51:17;;;;;;;11.80;10.60;;;;;;;2.56;83.64;97462.61;1711852;83;21368;-80
2021/03/16 09:53:55;;;;;;;10.03;8.88;;;;;;;2.55;83.37;97468.84;1713133;83;21172;-79
2021/03/16 09:56:35;;;;;;;10.58;9.48;;;;;;;2.48;83.44;97466.50;1693756;83;21058;-82
2021/03/16 09:59:03;;;;;;;12.93;11.43;;;;;;;2.50;83.49;97475.22;1711818;83;20939;-78
2021/03/16 10:01:40;;;;;;;9.45;8.55;;;;;;;2.48;83.89;97474.45;1711090;83;45123;-79
2021/03/16 10:04:13;;;;;;;13.98;9.38;;;;;;;2.50;84.16;97470.39;1712217;83;22376;-78
2021/03/16 10:06:43;;;;;;;10.65;9.55;;;;;;;2.47;84.17;97470.08;1711827;83;21041;-80
2021/03/16 10:09:20;;;;;;;9.40;8.38;;;;;;;2.49;84.21;97476.17;1711831;83;20919;-79
2021/03/16 10:11:49;;;;;;;10.18;8.33;;;;;;;2.52;84.21;97468.06;1711814;83;21468;-78
2021/03/16 10:14:29;;;;;;;11.43;9.85;;;;;;;2.54;84.31;97461.36;1711787;83;20970;-81
2021/03/16 10:16:58;;;;;;;10.20;7.78;;;;;;;2.57;84.44;97466.95;1711884;83;21249;-78
2021/03/16 10:19:26;;;;;;;9.43;8.30;;;;;;;2.56;84.24;97470.08;1712043;83;21579;-77
2021/03/16 10:21:54;;;;;;;9.63;8.38;;;;;;;2.58;84.03;97470.84;1712094;83;21050;-79
2021/03/16 10:24:24;;;;;;;9.48;7.97;;;;;;;2.56;83.87;97475.86;1715316;83;20950;-77
2021/03/16 10:26:59;;;;;;;9.70;8.78;;;;;;;2.56;84.12;97478.52;1712108;83;20943;-75
2021/03/16 10:29:28;;;;;;;8.08;7.05;;;;;;;2.56;83.97;97478.52;1711974;83;21377;-77
2021/03/16 10:31:55;;;;;;;6.65;5.97;;;;;;;2.56;84.19;97481.16;1711817;83;20998;-77
2021/03/16 10:34:25;;;;;;;8.48;7.50;;;;;;;2.57;84.27;97477.55;1712009;83;21602;-77
2021/03/16 10:36:55;;;;;;;7.90;7.10;;;;;;;2.57;84.23;97481.08;1711939;83;20994;-77
2021/03/16 10:39:23;;;;;;;8.48;7.33;;;;;;;2.58;84.23;97493.86;1712000;83;21377;-76
2021/03/16 10:41:50;;;;;;;9.33;8.25;;;;;;;2.58;84.11;97488.56;1712038;83;21384;-76
2021/03/16 10:44:20;;;;;;;6.95;5.83;;;;;;;2.58;84.17;97489.89;1711798;83;20962;-80
2021/03/16 10:46:48;;;;;;;8.30;6.30;;;;;;;2.58;84.33;97496.52;1711514;82;20935;-77
2021/03/16 10:49:18;;;;;;;7.40;6.10;;;;;;;2.59;84.15;97492.94;1711739;83;21006;-78
2021/03/16 10:51:49;;;;;;;6.33;5.40;;;;;;;2.58;84.16;97495.19;1711913;83;21034;-76
2021/03/16 10:54:19;;;;;;;7.37;5.72;;;;;;;2.59;84.25;97494.27;1711937;83;21882;-79
2021/03/16 10:56:51;;;;;;;5.53;5.03;;;;;;;2.62;84.34;97496.27;1711962;83;21412;-77
2021/03/16 10:59:19;;;;;;;5.92;5.35;;;;;;;2.62;84.25;97490.97;1712016;83;21515;-77
2021/03/16 11:01:46;;;;;;;7.12;5.95;;;;;;;2.64;84.27;97484.27;1711936;83;20999;-79
2021/03/16 11:04:20;;;;;;;5.50;4.85;;;;;;;2.68;84.64;97488.45;1711939;83;20903;-80
2021/03/16 11:06:49;;;;;;;5.25;3.67;;;;;;;2.70;84.73;97483.95;1712110;83;21209;-79
2021/03/16 11:09:17;;;;;;;4.50;4.03;;;;;;;2.75;84.36;97487.21;1712014;83;21443;-77
2021/03/16 11:11:45;;;;;;;6.65;5.80;;;;;;;2.80;84.33;97479.02;1711946;83;21003;-79
2021/03/16 11:14:14;;;;;;;5.35;4.78;;;;;;;2.84;84.34;97486.73;1711932;83;21591;-78
2021/03/16 11:16:45;;;;;;;4.92;4.45;;;;;;;2.88;84.36;97492.72;1712061;83;21061;-78
2021/03/16 11:19:15;;;;;;;5.10;4.53;;;;;;;2.92;83.71;97494.28;1712009;83;21380;-78
2021/03/16 11:21:43;;;;;;;5.60;5.10;;;;;;;2.95;83.68;97494.58;1711895;83;20955;-79
2021/03/16 11:24:12;;;;;;;6.50;5.33;;;;;;;2.99;84.20;97488.18;1711895;83;20947;-80
2021/03/16 11:26:40;;;;;;;4.92;4.35;;;;;;;3.01;84.17;97487.61;1711935;83;20947;-79
2021/03/16 11:29:08;;;;;;;6.25;4.62;;;;;;;3.04;83.95;97490.11;1712023;83;21535;-80
2021/03/16 11:31:37;;;;;;;5.72;4.97;;;;;;;3.10;84.15;97484.47;1711965;83;21432;-80
2021/03/16 11:34:24;;;;;;;4.90;4.50;;;;;;;3.14;84.43;97482.05;1711888;83;21050;-80
2021/03/16 11:37:10;;;;;;;5.50;5.00;;;;;;;3.21;84.46;97475.45;1712038;83;20919;-78
2021/03/16 11:39:57;;;;;;;5.20;4.30;;;;;;;3.30;83.93;97475.44;1711980;83;21570;-79
2021/03/16 11:42:43;;;;;;;4.75;4.25;;;;;;;3.38;83.22;97471.05;1712090;83;21369;-76
2021/03/16 11:45:30;;;;;;;4.62;4.20;;;;;;;3.42;82.81;97465.48;1713394;83;21374;-80
2021/03/16 11:48:20;;;;;;;7.42;5.37;;;;;;;3.47;82.67;97463.90;1722957;83;20926;-77
2021/03/16 11:51:06;;;;;;;6.55;5.10;;;;;;;3.50;82.28;97458.88;1725364;83;21376;-81
2021/03/16 11:53:52;;;;;;;5.53;5.03;;;;;;;3.51;81.50;97457.94;1725273;83;21075;-78
2021/03/16 11:56:39;;;;;;;6.95;5.22;;;;;;;3.53;82.07;97464.02;1725336;83;20934;-81
2021/03/16 11:59:26;;;;;;;6.15;5.25;;;;;;;3.56;82.08;97470.03;1725400;83;21254;-81
2021/03/16 12:02:13;;;;;;;6.75;4.92;;;;;;;3.59;82.23;97476.47;1725228;83;20914;-80
2021/03/16 12:05:03;;;;;;;7.17;5.40;;;;;;;3.62;81.94;97472.31;1725224;83;20938;-80
2021/03/16 12:07:50;;;;;;;4.83;3.75;;;;;;;3.61;81.30;97474.60;1725212;83;20959;-80
2021/03/16 12:10:38;;;;;;;6.80;3.92;;;;;;;3.62;81.33;97481.61;1725345;83;21427;-79
2021/03/16 12:13:27;;;;;;;5.37;3.62;;;;;;;3.59;80.78;97471.16;1725254;83;21838;-81
2021/03/16 12:16:13;;;;;;;4.10;3.62;;;;;;;3.62;80.77;97478.95;1725321;83;20965;-80
2021/03/16 12:19:01;;;;;;;5.42;4.45;;;;;;;3.58;79.85;97474.77;1725225;83;20950;-78
2021/03/16 12:21:46;;;;;;;4.45;3.95;;;;;;;3.51;79.92;97473.39;1725250;83;20994;-79
2021/03/16 12:24:36;;;;;;;5.55;4.62;;;;;;;3.47;80.27;97482.93;1725626;83;21112;-79
2021/03/16 12:27:22;;;;;;;6.80;5.65;;;;;;;3.45;80.46;97473.72;1725621;83;21268;-80
2021/03/16 12:30:11;;;;;;;10.30;5.67;;;;;;;3.42;80.33;97476.55;1725149;83;20970;-78
2021/03/16 12:32:58;;;;;;;7.12;4.65;;;;;;;3.42;80.84;97476.55;1725345;83;21018;-80
2021/03/16 12:35:47;;;;;;;6.92;5.25;;;;;;;3.39;80.87;97473.61;1725147;83;21009;-80
2021/03/16 12:38:34;;;;;;;7.22;6.40;;;;;;;3.41;81.34;97472.20;1725228;83;21105;-79
2021/03/16 12:41:22;;;;;;;7.85;5.97;;;;;;;3.39;81.08;97466.09;1725112;83;21437;-79
2021/03/16 12:48:34;;;;;;;;;;;;;;;3.37;80.81;97470.16;1689352;85;21086;-79